Herculandia, Brazil
Current Conditions -  °F | °C
As of 12:15 PM on Monday 22 Dec 2014 (Local Time) from SBDN Reporting Station
Broken Clouds Broken Clouds  
Wind Chill: 75°   Ceiling: 4000
Heat Index: 75°   Visibility: 6mi
Dew Point: 73°   Wind: 5mph
Humidity: 94%   Direction: 20°NNE
Pressure: 29.88"   Gusts: NA
Location:  22.01°S, 50.39°W
Report Text: SBDN 221415Z 02004KT 9999 SCT020 BKN040 24/23 Q1012 RERA
Loading
Personal Weather Stations






























Interactive Weather Map New forecast layout! Learn more

10-Day Weather Forecast

Advertisements
Track Severe Weather on mobile